sensor_id;sensor_type;location;lat;lon;timestamp;P1;durP1;ratioP1;P2;durP2;ratioP2
43744;SDS011;29359;53.048;8.732;2023-12-20T00:00:11;9.98;;;1.45;;
43744;SDS011;29359;53.048;8.732;2023-12-20T00:02:13;9.15;;;1.10;;
43744;SDS011;29359;53.048;8.732;2023-12-20T00:04:15;9.98;;;1.27;;
43744;SDS011;29359;53.048;8.732;2023-12-20T00:06:17;10.35;;;1.30;;
43744;SDS011;29359;53.048;8.732;2023-12-20T00:08:19;8.18;;;0.80;;
43744;SDS011;29359;53.048;8.732;2023-12-20T00:10:20;6.53;;;1.05;;
43744;SDS011;29359;53.048;8.732;2023-12-20T00:12:22;5.00;;;1.08;;
43744;SDS011;29359;53.048;8.732;2023-12-20T00:14:24;8.32;;;1.55;;
43744;SDS011;29359;53.048;8.732;2023-12-20T00:16:26;18.17;;;1.55;;
43744;SDS011;29359;53.048;8.732;2023-12-20T00:18:27;6.20;;;1.05;;
43744;SDS011;29359;53.048;8.732;2023-12-20T00:20:29;9.50;;;1.67;;
43744;SDS011;29359;53.048;8.732;2023-12-20T00:22:31;14.30;;;1.85;;
43744;SDS011;29359;53.048;8.732;2023-12-20T00:24:33;11.98;;;1.85;;
43744;SDS011;29359;53.048;8.732;2023-12-20T00:26:35;7.30;;;0.98;;
43744;SDS011;29359;53.048;8.732;2023-12-20T00:28:37;17.08;;;1.60;;
43744;SDS011;29359;53.048;8.732;2023-12-20T00:30:39;15.02;;;1.55;;
43744;SDS011;29359;53.048;8.732;2023-12-20T00:32:41;10.23;;;1.30;;
43744;SDS011;29359;53.048;8.732;2023-12-20T00:34:48;18.70;;;1.60;;
43744;SDS011;29359;53.048;8.732;2023-12-20T00:36:50;7.25;;;1.23;;
43744;SDS011;29359;53.048;8.732;2023-12-20T00:38:51;12.68;;;1.63;;
43744;SDS011;29359;53.048;8.732;2023-12-20T00:40:54;8.50;;;1.83;;
43744;SDS011;29359;53.048;8.732;2023-12-20T00:42:55;6.35;;;1.23;;
43744;SDS011;29359;53.048;8.732;2023-12-20T00:44:58;7.78;;;1.70;;
43744;SDS011;29359;53.048;8.732;2023-12-20T00:47:00;7.35;;;1.17;;
43744;SDS011;29359;53.048;8.732;2023-12-20T00:49:02;4.50;;;1.67;;
43744;SDS011;29359;53.048;8.732;2023-12-20T00:51:04;8.05;;;1.13;;
43744;SDS011;29359;53.048;8.732;2023-12-20T00:53:06;9.45;;;1.27;;
43744;SDS011;29359;53.048;8.732;2023-12-20T00:55:07;9.02;;;1.42;;
43744;SDS011;29359;53.048;8.732;2023-12-20T00:57:09;6.25;;;1.20;;
43744;SDS011;29359;53.048;8.732;2023-12-20T00:59:11;9.75;;;1.85;;
43744;SDS011;29359;53.048;8.732;2023-12-20T01:01:13;11.18;;;1.40;;
43744;SDS011;29359;53.048;8.732;2023-12-20T01:03:15;4.63;;;1.25;;
43744;SDS011;29359;53.048;8.732;2023-12-20T01:05:20;9.45;;;1.23;;
43744;SDS011;29359;53.048;8.732;2023-12-20T01:07:24;14.50;;;1.52;;
43744;SDS011;29359;53.048;8.732;2023-12-20T01:09:26;12.70;;;2.95;;
43744;SDS011;29359;53.048;8.732;2023-12-20T01:11:28;8.98;;;1.10;;
43744;SDS011;29359;53.048;8.732;2023-12-20T01:13:30;15.18;;;2.22;;
43744;SDS011;29359;53.048;8.732;2023-12-20T01:15:31;13.23;;;1.35;;
43744;SDS011;29359;53.048;8.732;2023-12-20T01:17:33;6.88;;;1.27;;
43744;SDS011;29359;53.048;8.732;2023-12-20T01:19:35;9.45;;;1.73;;
43744;SDS011;29359;53.048;8.732;2023-12-20T01:21:38;12.77;;;1.50;;
43744;SDS011;29359;53.048;8.732;2023-12-20T01:23:39;5.95;;;1.20;;
43744;SDS011;29359;53.048;8.732;2023-12-20T01:25:41;8.80;;;3.00;;
43744;SDS011;29359;53.048;8.732;2023-12-20T01:27:43;5.50;;;1.10;;
43744;SDS011;29359;53.048;8.732;2023-12-20T01:29:45;8.35;;;1.40;;
43744;SDS011;29359;53.048;8.732;2023-12-20T01:31:47;8.43;;;1.10;;
43744;SDS011;29359;53.048;8.732;2023-12-20T01:33:49;7.53;;;1.23;;
43744;SDS011;29359;53.048;8.732;2023-12-20T01:35:50;10.32;;;1.45;;
43744;SDS011;29359;53.048;8.732;2023-12-20T01:37:52;8.43;;;1.60;;
43744;SDS011;29359;53.048;8.732;2023-12-20T01:39:58;12.68;;;1.35;;
43744;SDS011;29359;53.048;8.732;2023-12-20T01:42:00;9.93;;;1.50;;
43744;SDS011;29359;53.048;8.732;2023-12-20T01:44:02;13.98;;;1.60;;
43744;SDS011;29359;53.048;8.732;2023-12-20T01:46:03;11.80;;;1.52;;
43744;SDS011;29359;53.048;8.732;2023-12-20T01:48:06;6.88;;;1.73;;
43744;SDS011;29359;53.048;8.732;2023-12-20T01:50:10;10.65;;;1.52;;
43744;SDS011;29359;53.048;8.732;2023-12-20T01:52:12;7.63;;;1.50;;
43744;SDS011;29359;53.048;8.732;2023-12-20T01:54:14;8.85;;;1.80;;
43744;SDS011;29359;53.048;8.732;2023-12-20T01:56:16;12.05;;;1.65;;
43744;SDS011;29359;53.048;8.732;2023-12-20T01:58:18;4.30;;;1.23;;
43744;SDS011;29359;53.048;8.732;2023-12-20T02:00:20;6.03;;;1.33;;
43744;SDS011;29359;53.048;8.732;2023-12-20T02:02:25;10.10;;;1.52;;
43744;SDS011;29359;53.048;8.732;2023-12-20T02:04:28;16.70;;;1.63;;
43744;SDS011;29359;53.048;8.732;2023-12-20T02:06:31;9.85;;;1.20;;
43744;SDS011;29359;53.048;8.732;2023-12-20T02:08:35;5.18;;;1.10;;
43744;SDS011;29359;53.048;8.732;2023-12-20T02:10:37;5.97;;;1.20;;
43744;SDS011;29359;53.048;8.732;2023-12-20T02:12:40;9.35;;;1.10;;
43744;SDS011;29359;53.048;8.732;2023-12-20T02:14:42;9.02;;;1.30;;
43744;SDS011;29359;53.048;8.732;2023-12-20T02:16:43;10.80;;;1.48;;
43744;SDS011;29359;53.048;8.732;2023-12-20T02:18:45;12.10;;;1.33;;
43744;SDS011;29359;53.048;8.732;2023-12-20T02:20:47;16.00;;;1.90;;
43744;SDS011;29359;53.048;8.732;2023-12-20T02:22:49;6.35;;;1.05;;
43744;SDS011;29359;53.048;8.732;2023-12-20T02:24:50;11.23;;;2.05;;
43744;SDS011;29359;53.048;8.732;2023-12-20T02:26:52;9.82;;;1.05;;
43744;SDS011;29359;53.048;8.732;2023-12-20T02:28:54;12.52;;;1.75;;
43744;SDS011;29359;53.048;8.732;2023-12-20T02:30:56;6.90;;;1.13;;
43744;SDS011;29359;53.048;8.732;2023-12-20T02:32:59;9.98;;;1.50;;
43744;SDS011;29359;53.048;8.732;2023-12-20T02:35:01;6.43;;;1.00;;
43744;SDS011;29359;53.048;8.732;2023-12-20T02:37:03;6.10;;;1.50;;
43744;SDS011;29359;53.048;8.732;2023-12-20T02:39:05;8.55;;;1.60;;
43744;SDS011;29359;53.048;8.732;2023-12-20T02:41:07;12.02;;;1.30;;
43744;SDS011;29359;53.048;8.732;2023-12-20T02:43:08;12.15;;;1.50;;
43744;SDS011;29359;53.048;8.732;2023-12-20T02:45:10;10.85;;;1.50;;
43744;SDS011;29359;53.048;8.732;2023-12-20T02:47:12;7.18;;;1.50;;
43744;SDS011;29359;53.048;8.732;2023-12-20T02:49:14;11.90;;;1.30;;
43744;SDS011;29359;53.048;8.732;2023-12-20T02:51:15;5.75;;;1.27;;
43744;SDS011;29359;53.048;8.732;2023-12-20T02:53:17;6.85;;;1.27;;
43744;SDS011;29359;53.048;8.732;2023-12-20T02:55:19;8.63;;;1.20;;
43744;SDS011;29359;53.048;8.732;2023-12-20T02:57:21;11.80;;;2.53;;
43744;SDS011;29359;53.048;8.732;2023-12-20T02:59:22;10.13;;;1.50;;
43744;SDS011;29359;53.048;8.732;2023-12-20T03:01:24;7.97;;;1.40;;
43744;SDS011;29359;53.048;8.732;2023-12-20T03:03:26;8.88;;;2.25;;
43744;SDS011;29359;53.048;8.732;2023-12-20T03:05:27;11.27;;;1.73;;
43744;SDS011;29359;53.048;8.732;2023-12-20T03:07:29;7.43;;;1.15;;
43744;SDS011;29359;53.048;8.732;2023-12-20T03:09:31;6.20;;;1.17;;
43744;SDS011;29359;53.048;8.732;2023-12-20T03:11:53;6.47;;;1.40;;
43744;SDS011;29359;53.048;8.732;2023-12-20T03:13:55;7.63;;;1.20;;
43744;SDS011;29359;53.048;8.732;2023-12-20T03:15:58;8.68;;;1.60;;
43744;SDS011;29359;53.048;8.732;2023-12-20T03:17:59;10.00;;;1.90;;
43744;SDS011;29359;53.048;8.732;2023-12-20T03:20:02;9.60;;;1.70;;
43744;SDS011;29359;53.048;8.732;2023-12-20T03:22:04;7.00;;;1.20;;
43744;SDS011;29359;53.048;8.732;2023-12-20T03:24:06;7.07;;;1.60;;
43744;SDS011;29359;53.048;8.732;2023-12-20T03:26:08;7.93;;;1.52;;
43744;SDS011;29359;53.048;8.732;2023-12-20T03:28:09;10.38;;;1.35;;
43744;SDS011;29359;53.048;8.732;2023-12-20T03:30:11;10.30;;;2.42;;
43744;SDS011;29359;53.048;8.732;2023-12-20T03:32:13;10.98;;;1.55;;
43744;SDS011;29359;53.048;8.732;2023-12-20T03:34:15;16.20;;;3.17;;
43744;SDS011;29359;53.048;8.732;2023-12-20T03:36:17;10.52;;;1.58;;
43744;SDS011;29359;53.048;8.732;2023-12-20T03:38:19;12.15;;;1.83;;
43744;SDS011;29359;53.048;8.732;2023-12-20T03:40:21;10.82;;;2.20;;
43744;SDS011;29359;53.048;8.732;2023-12-20T03:42:24;16.02;;;1.92;;
43744;SDS011;29359;53.048;8.732;2023-12-20T03:44:25;15.15;;;1.95;;
43744;SDS011;29359;53.048;8.732;2023-12-20T03:46:27;12.48;;;2.30;;
43744;SDS011;29359;53.048;8.732;2023-12-20T03:48:29;8.63;;;2.15;;
43744;SDS011;29359;53.048;8.732;2023-12-20T03:50:32;7.32;;;1.75;;
43744;SDS011;29359;53.048;8.732;2023-12-20T03:52:34;7.97;;;1.80;;
43744;SDS011;29359;53.048;8.732;2023-12-20T03:54:35;12.40;;;2.75;;
43744;SDS011;29359;53.048;8.732;2023-12-20T03:56:37;12.68;;;2.00;;
43744;SDS011;29359;53.048;8.732;2023-12-20T03:58:39;10.25;;;2.65;;
43744;SDS011;29359;53.048;8.732;2023-12-20T04:00:41;9.88;;;2.47;;
43744;SDS011;29359;53.048;8.732;2023-12-20T04:02:43;14.93;;;2.15;;
43744;SDS011;29359;53.048;8.732;2023-12-20T04:04:44;13.30;;;1.83;;
43744;SDS011;29359;53.048;8.732;2023-12-20T04:06:46;14.23;;;2.22;;
43744;SDS011;29359;53.048;8.732;2023-12-20T04:08:49;12.25;;;2.40;;
43744;SDS011;29359;53.048;8.732;2023-12-20T04:10:50;15.63;;;3.03;;
43744;SDS011;29359;53.048;8.732;2023-12-20T04:12:53;8.68;;;2.28;;
43744;SDS011;29359;53.048;8.732;2023-12-20T04:14:55;12.40;;;2.00;;
43744;SDS011;29359;53.048;8.732;2023-12-20T04:16:57;9.30;;;1.85;;
43744;SDS011;29359;53.048;8.732;2023-12-20T04:18:59;10.18;;;1.98;;
43744;SDS011;29359;53.048;8.732;2023-12-20T04:21:01;10.95;;;1.70;;
43744;SDS011;29359;53.048;8.732;2023-12-20T04:23:03;8.77;;;2.10;;
43744;SDS011;29359;53.048;8.732;2023-12-20T04:25:05;11.98;;;2.00;;
43744;SDS011;29359;53.048;8.732;2023-12-20T04:27:07;13.35;;;2.25;;
43744;SDS011;29359;53.048;8.732;2023-12-20T04:29:09;10.23;;;2.03;;
43744;SDS011;29359;53.048;8.732;2023-12-20T04:31:11;8.18;;;2.20;;
43744;SDS011;29359;53.048;8.732;2023-12-20T04:33:13;10.43;;;2.38;;
43744;SDS011;29359;53.048;8.732;2023-12-20T04:35:15;7.43;;;2.40;;
43744;SDS011;29359;53.048;8.732;2023-12-20T04:37:17;8.68;;;2.47;;
43744;SDS011;29359;53.048;8.732;2023-12-20T04:39:19;10.00;;;2.80;;
43744;SDS011;29359;53.048;8.732;2023-12-20T04:41:21;14.75;;;3.13;;
43744;SDS011;29359;53.048;8.732;2023-12-20T04:43:23;9.60;;;2.47;;
43744;SDS011;29359;53.048;8.732;2023-12-20T04:45:25;13.50;;;2.38;;
43744;SDS011;29359;53.048;8.732;2023-12-20T04:47:26;14.07;;;2.88;;
43744;SDS011;29359;53.048;8.732;2023-12-20T04:49:28;16.10;;;3.40;;
43744;SDS011;29359;53.048;8.732;2023-12-20T04:51:32;14.52;;;2.58;;
43744;SDS011;29359;53.048;8.732;2023-12-20T04:53:35;12.45;;;2.15;;
43744;SDS011;29359;53.048;8.732;2023-12-20T04:55:37;13.02;;;2.10;;
43744;SDS011;29359;53.048;8.732;2023-12-20T04:57:38;12.85;;;2.00;;
43744;SDS011;29359;53.048;8.732;2023-12-20T04:59:40;13.80;;;2.47;;
43744;SDS011;29359;53.048;8.732;2023-12-20T05:01:43;11.82;;;2.58;;
43744;SDS011;29359;53.048;8.732;2023-12-20T05:03:45;12.93;;;2.92;;
43744;SDS011;29359;53.048;8.732;2023-12-20T05:05:46;13.05;;;2.60;;
43744;SDS011;29359;53.048;8.732;2023-12-20T05:07:48;14.55;;;2.75;;
43744;SDS011;29359;53.048;8.732;2023-12-20T05:09:50;11.25;;;2.83;;
43744;SDS011;29359;53.048;8.732;2023-12-20T05:11:52;9.93;;;2.53;;
43744;SDS011;29359;53.048;8.732;2023-12-20T05:13:54;10.07;;;2.85;;
43744;SDS011;29359;53.048;8.732;2023-12-20T05:15:56;15.35;;;2.70;;
43744;SDS011;29359;53.048;8.732;2023-12-20T05:17:57;11.82;;;2.58;;
43744;SDS011;29359;53.048;8.732;2023-12-20T05:19:59;15.18;;;2.95;;
43744;SDS011;29359;53.048;8.732;2023-12-20T05:22:01;9.52;;;1.77;;
43744;SDS011;29359;53.048;8.732;2023-12-20T05:24:04;14.07;;;2.40;;
43744;SDS011;29359;53.048;8.732;2023-12-20T05:26:06;16.67;;;2.03;;
43744;SDS011;29359;53.048;8.732;2023-12-20T05:28:08;8.75;;;1.95;;
43744;SDS011;29359;53.048;8.732;2023-12-20T05:30:10;12.52;;;2.75;;
43744;SDS011;29359;53.048;8.732;2023-12-20T05:32:12;18.08;;;2.75;;
43744;SDS011;29359;53.048;8.732;2023-12-20T05:34:14;18.35;;;2.70;;
43744;SDS011;29359;53.048;8.732;2023-12-20T05:36:16;13.70;;;2.25;;
43744;SDS011;29359;53.048;8.732;2023-12-20T05:38:18;21.60;;;3.15;;
43744;SDS011;29359;53.048;8.732;2023-12-20T05:40:20;14.80;;;2.55;;
43744;SDS011;29359;53.048;8.732;2023-12-20T05:42:22;11.52;;;2.63;;
43744;SDS011;29359;53.048;8.732;2023-12-20T05:44:23;16.50;;;3.05;;
43744;SDS011;29359;53.048;8.732;2023-12-20T05:46:25;11.05;;;2.60;;
43744;SDS011;29359;53.048;8.732;2023-12-20T05:48:27;11.60;;;2.60;;
43744;SDS011;29359;53.048;8.732;2023-12-20T05:50:29;12.93;;;2.33;;
43744;SDS011;29359;53.048;8.732;2023-12-20T05:52:31;12.93;;;1.98;;
43744;SDS011;29359;53.048;8.732;2023-12-20T05:54:32;12.82;;;2.58;;
43744;SDS011;29359;53.048;8.732;2023-12-20T05:56:35;6.97;;;1.42;;
43744;SDS011;29359;53.048;8.732;2023-12-20T05:58:38;14.90;;;3.30;;
43744;SDS011;29359;53.048;8.732;2023-12-20T06:00:40;16.60;;;2.88;;
43744;SDS011;29359;53.048;8.732;2023-12-20T06:02:42;17.48;;;2.85;;
43744;SDS011;29359;53.048;8.732;2023-12-20T06:04:44;15.23;;;2.72;;
43744;SDS011;29359;53.048;8.732;2023-12-20T06:06:46;15.10;;;2.45;;
43744;SDS011;29359;53.048;8.732;2023-12-20T06:08:48;30.35;;;3.58;;
43744;SDS011;29359;53.048;8.732;2023-12-20T06:10:50;15.50;;;2.97;;
43744;SDS011;29359;53.048;8.732;2023-12-20T06:12:53;14.63;;;3.30;;
43744;SDS011;29359;53.048;8.732;2023-12-20T06:14:55;13.23;;;2.25;;
43744;SDS011;29359;53.048;8.732;2023-12-20T06:16:57;12.95;;;2.03;;
43744;SDS011;29359;53.048;8.732;2023-12-20T06:19:00;19.63;;;2.65;;
43744;SDS011;29359;53.048;8.732;2023-12-20T06:21:02;8.57;;;2.05;;
43744;SDS011;29359;53.048;8.732;2023-12-20T06:23:04;12.88;;;2.22;;
43744;SDS011;29359;53.048;8.732;2023-12-20T06:25:06;25.25;;;3.78;;
43744;SDS011;29359;53.048;8.732;2023-12-20T06:27:08;14.25;;;2.60;;
43744;SDS011;29359;53.048;8.732;2023-12-20T06:29:10;21.98;;;2.90;;
43744;SDS011;29359;53.048;8.732;2023-12-20T06:31:12;16.48;;;2.30;;
43744;SDS011;29359;53.048;8.732;2023-12-20T06:33:14;16.00;;;2.63;;
43744;SDS011;29359;53.048;8.732;2023-12-20T06:35:16;17.75;;;2.85;;
43744;SDS011;29359;53.048;8.732;2023-12-20T06:37:18;12.60;;;2.30;;
43744;SDS011;29359;53.048;8.732;2023-12-20T06:39:20;18.05;;;2.92;;
43744;SDS011;29359;53.048;8.732;2023-12-20T06:41:21;8.48;;;2.13;;
43744;SDS011;29359;53.048;8.732;2023-12-20T06:43:25;15.25;;;2.53;;
43744;SDS011;29359;53.048;8.732;2023-12-20T06:45:46;15.02;;;2.40;;
43744;SDS011;29359;53.048;8.732;2023-12-20T06:47:48;14.18;;;2.30;;
43744;SDS011;29359;53.048;8.732;2023-12-20T06:49:50;16.15;;;3.03;;
43744;SDS011;29359;53.048;8.732;2023-12-20T06:51:52;23.10;;;2.90;;
43744;SDS011;29359;53.048;8.732;2023-12-20T06:53:54;14.20;;;2.85;;
43744;SDS011;29359;53.048;8.732;2023-12-20T06:55:56;11.65;;;2.72;;
43744;SDS011;29359;53.048;8.732;2023-12-20T06:57:58;20.98;;;4.40;;
43744;SDS011;29359;53.048;8.732;2023-12-20T07:00:00;16.75;;;2.25;;
43744;SDS011;29359;53.048;8.732;2023-12-20T07:02:02;15.18;;;2.40;;
43744;SDS011;29359;53.048;8.732;2023-12-20T07:04:04;13.63;;;2.58;;
43744;SDS011;29359;53.048;8.732;2023-12-20T07:06:06;23.10;;;3.15;;
43744;SDS011;29359;53.048;8.732;2023-12-20T07:08:08;18.98;;;3.03;;
43744;SDS011;29359;53.048;8.732;2023-12-20T07:10:09;27.42;;;3.55;;
43744;SDS011;29359;53.048;8.732;2023-12-20T07:12:11;19.88;;;3.60;;
43744;SDS011;29359;53.048;8.732;2023-12-20T07:14:13;18.55;;;2.65;;
43744;SDS011;29359;53.048;8.732;2023-12-20T07:16:15;22.27;;;3.60;;
43744;SDS011;29359;53.048;8.732;2023-12-20T07:18:17;16.65;;;3.40;;
43744;SDS011;29359;53.048;8.732;2023-12-20T07:20:19;24.60;;;3.10;;
43744;SDS011;29359;53.048;8.732;2023-12-20T07:22:21;16.80;;;3.08;;
43744;SDS011;29359;53.048;8.732;2023-12-20T07:24:23;20.17;;;3.50;;
43744;SDS011;29359;53.048;8.732;2023-12-20T07:26:24;13.85;;;2.70;;
43744;SDS011;29359;53.048;8.732;2023-12-20T07:28:26;23.60;;;3.30;;
43744;SDS011;29359;53.048;8.732;2023-12-20T07:30:28;14.45;;;3.25;;
43744;SDS011;29359;53.048;8.732;2023-12-20T07:32:30;17.17;;;2.75;;
43744;SDS011;29359;53.048;8.732;2023-12-20T07:34:32;27.88;;;3.22;;
43744;SDS011;29359;53.048;8.732;2023-12-20T07:36:37;15.70;;;2.58;;
43744;SDS011;29359;53.048;8.732;2023-12-20T07:38:39;15.40;;;3.00;;
43744;SDS011;29359;53.048;8.732;2023-12-20T07:40:41;17.63;;;3.13;;
43744;SDS011;29359;53.048;8.732;2023-12-20T07:42:42;15.40;;;3.10;;
43744;SDS011;29359;53.048;8.732;2023-12-20T07:44:44;20.52;;;2.63;;
43744;SDS011;29359;53.048;8.732;2023-12-20T07:46:46;17.17;;;3.33;;
43744;SDS011;29359;53.048;8.732;2023-12-20T07:48:50;23.48;;;3.67;;
43744;SDS011;29359;53.048;8.732;2023-12-20T07:50:52;16.42;;;2.55;;
43744;SDS011;29359;53.048;8.732;2023-12-20T07:52:55;16.95;;;3.65;;
43744;SDS011;29359;53.048;8.732;2023-12-20T07:54:57;15.02;;;2.65;;
43744;SDS011;29359;53.048;8.732;2023-12-20T07:56:59;11.77;;;2.67;;
43744;SDS011;29359;53.048;8.732;2023-12-20T07:59:00;15.48;;;3.00;;
43744;SDS011;29359;53.048;8.732;2023-12-20T08:01:03;14.85;;;2.90;;
43744;SDS011;29359;53.048;8.732;2023-12-20T08:03:04;22.58;;;3.60;;
43744;SDS011;29359;53.048;8.732;2023-12-20T08:05:06;12.52;;;2.15;;
43744;SDS011;29359;53.048;8.732;2023-12-20T08:07:09;23.67;;;3.10;;
43744;SDS011;29359;53.048;8.732;2023-12-20T08:09:11;16.33;;;3.20;;
43744;SDS011;29359;53.048;8.732;2023-12-20T08:11:12;15.70;;;2.85;;
43744;SDS011;29359;53.048;8.732;2023-12-20T08:13:14;18.52;;;3.38;;
43744;SDS011;29359;53.048;8.732;2023-12-20T08:15:17;12.65;;;2.42;;
43744;SDS011;29359;53.048;8.732;2023-12-20T08:17:19;11.27;;;2.17;;
43744;SDS011;29359;53.048;8.732;2023-12-20T08:19:20;14.43;;;2.60;;
43744;SDS011;29359;53.048;8.732;2023-12-20T08:21:22;12.30;;;2.00;;
43744;SDS011;29359;53.048;8.732;2023-12-20T08:23:24;11.65;;;2.13;;
43744;SDS011;29359;53.048;8.732;2023-12-20T08:25:28;14.60;;;3.13;;
43744;SDS011;29359;53.048;8.732;2023-12-20T08:27:30;15.40;;;2.63;;
43744;SDS011;29359;53.048;8.732;2023-12-20T08:29:33;9.50;;;2.50;;
43744;SDS011;29359;53.048;8.732;2023-12-20T08:31:35;18.40;;;2.80;;
43744;SDS011;29359;53.048;8.732;2023-12-20T08:33:36;11.02;;;2.40;;
43744;SDS011;29359;53.048;8.732;2023-12-20T08:35:39;17.02;;;2.72;;
43744;SDS011;29359;53.048;8.732;2023-12-20T08:37:41;13.80;;;2.42;;
43744;SDS011;29359;53.048;8.732;2023-12-20T08:39:43;12.13;;;2.22;;
43744;SDS011;29359;53.048;8.732;2023-12-20T08:41:46;10.30;;;2.30;;
43744;SDS011;29359;53.048;8.732;2023-12-20T08:43:48;12.98;;;3.13;;
43744;SDS011;29359;53.048;8.732;2023-12-20T08:45:50;11.23;;;2.25;;
43744;SDS011;29359;53.048;8.732;2023-12-20T08:47:52;9.48;;;2.47;;
43744;SDS011;29359;53.048;8.732;2023-12-20T08:49:54;9.50;;;2.55;;
43744;SDS011;29359;53.048;8.732;2023-12-20T08:51:59;13.95;;;2.22;;
43744;SDS011;29359;53.048;8.732;2023-12-20T08:54:01;10.77;;;2.08;;
43744;SDS011;29359;53.048;8.732;2023-12-20T08:56:03;13.80;;;2.38;;
43744;SDS011;29359;53.048;8.732;2023-12-20T08:58:05;12.98;;;2.55;;
43744;SDS011;29359;53.048;8.732;2023-12-20T09:00:08;18.30;;;2.92;;
43744;SDS011;29359;53.048;8.732;2023-12-20T09:02:10;14.45;;;3.03;;
43744;SDS011;29359;53.048;8.732;2023-12-20T09:04:12;16.65;;;2.88;;
43744;SDS011;29359;53.048;8.732;2023-12-20T09:06:14;15.05;;;2.50;;
43744;SDS011;29359;53.048;8.732;2023-12-20T09:08:17;10.40;;;2.22;;
43744;SDS011;29359;53.048;8.732;2023-12-20T09:10:19;14.50;;;3.00;;
43744;SDS011;29359;53.048;8.732;2023-12-20T09:12:24;11.80;;;2.58;;
43744;SDS011;29359;53.048;8.732;2023-12-20T09:14:26;12.70;;;2.78;;
43744;SDS011;29359;53.048;8.732;2023-12-20T09:16:28;14.75;;;2.40;;
43744;SDS011;29359;53.048;8.732;2023-12-20T09:18:30;11.95;;;2.45;;
43744;SDS011;29359;53.048;8.732;2023-12-20T09:20:32;17.27;;;2.35;;
43744;SDS011;29359;53.048;8.732;2023-12-20T09:22:34;11.95;;;2.50;;
43744;SDS011;29359;53.048;8.732;2023-12-20T09:24:36;15.77;;;2.90;;
43744;SDS011;29359;53.048;8.732;2023-12-20T09:26:38;11.98;;;2.15;;
43744;SDS011;29359;53.048;8.732;2023-12-20T09:28:41;14.20;;;2.88;;
43744;SDS011;29359;53.048;8.732;2023-12-20T09:30:43;16.75;;;2.88;;
43744;SDS011;29359;53.048;8.732;2023-12-20T09:32:47;18.75;;;3.08;;
43744;SDS011;29359;53.048;8.732;2023-12-20T09:34:49;20.13;;;2.85;;
43744;SDS011;29359;53.048;8.732;2023-12-20T09:36:51;12.82;;;2.50;;
43744;SDS011;29359;53.048;8.732;2023-12-20T09:38:53;12.05;;;2.53;;
43744;SDS011;29359;53.048;8.732;2023-12-20T09:40:55;17.17;;;2.65;;
43744;SDS011;29359;53.048;8.732;2023-12-20T09:42:58;12.60;;;2.58;;
43744;SDS011;29359;53.048;8.732;2023-12-20T09:45:04;11.60;;;2.50;;
43744;SDS011;29359;53.048;8.732;2023-12-20T09:47:10;16.55;;;2.70;;
43744;SDS011;29359;53.048;8.732;2023-12-20T09:49:12;16.70;;;2.80;;
43744;SDS011;29359;53.048;8.732;2023-12-20T09:51:15;8.27;;;1.60;;
43744;SDS011;29359;53.048;8.732;2023-12-20T09:53:17;3.33;;;0.60;;
43744;SDS011;29359;53.048;8.732;2023-12-20T09:55:20;3.55;;;0.50;;
43744;SDS011;29359;53.048;8.732;2023-12-20T09:57:23;4.93;;;0.70;;
43744;SDS011;29359;53.048;8.732;2023-12-20T09:59:25;3.47;;;0.57;;
43744;SDS011;29359;53.048;8.732;2023-12-20T10:01:27;2.50;;;0.43;;
43744;SDS011;29359;53.048;8.732;2023-12-20T10:03:30;5.03;;;0.43;;
43744;SDS011;29359;53.048;8.732;2023-12-20T10:05:33;1.73;;;0.40;;
43744;SDS011;29359;53.048;8.732;2023-12-20T10:07:36;2.58;;;0.57;;
43744;SDS011;29359;53.048;8.732;2023-12-20T10:09:37;0.82;;;0.30;;
43744;SDS011;29359;53.048;8.732;2023-12-20T10:11:39;2.33;;;0.38;;
43744;SDS011;29359;53.048;8.732;2023-12-20T10:13:42;3.53;;;0.50;;
43744;SDS011;29359;53.048;8.732;2023-12-20T10:15:44;1.90;;;0.60;;
43744;SDS011;29359;53.048;8.732;2023-12-20T10:17:48;1.45;;;0.43;;
43744;SDS011;29359;53.048;8.732;2023-12-20T10:19:51;1.60;;;0.43;;
43744;SDS011;29359;53.048;8.732;2023-12-20T10:21:53;0.57;;;0.28;;
43744;SDS011;29359;53.048;8.732;2023-12-20T10:23:55;3.28;;;0.75;;
43744;SDS011;29359;53.048;8.732;2023-12-20T10:25:58;1.42;;;0.55;;
43744;SDS011;29359;53.048;8.732;2023-12-20T10:28:11;1.85;;;0.60;;
43744;SDS011;29359;53.048;8.732;2023-12-20T10:30:15;3.53;;;0.60;;
43744;SDS011;29359;53.048;8.732;2023-12-20T10:32:23;2.35;;;0.52;;
43744;SDS011;29359;53.048;8.732;2023-12-20T10:34:27;5.93;;;0.60;;
43744;SDS011;29359;53.048;8.732;2023-12-20T10:36:30;1.40;;;0.47;;
43744;SDS011;29359;53.048;8.732;2023-12-20T10:38:35;4.78;;;1.00;;
43744;SDS011;29359;53.048;8.732;2023-12-20T10:40:41;3.90;;;0.60;;
43744;SDS011;29359;53.048;8.732;2023-12-20T10:42:46;4.03;;;0.68;;
43744;SDS011;29359;53.048;8.732;2023-12-20T10:44:49;4.55;;;0.57;;
43744;SDS011;29359;53.048;8.732;2023-12-20T10:46:52;2.38;;;0.90;;
43744;SDS011;29359;53.048;8.732;2023-12-20T10:48:59;4.32;;;0.60;;
43744;SDS011;29359;53.048;8.732;2023-12-20T10:51:04;3.55;;;0.68;;
43744;SDS011;29359;53.048;8.732;2023-12-20T10:53:07;4.55;;;0.70;;
43744;SDS011;29359;53.048;8.732;2023-12-20T10:55:09;3.65;;;0.75;;
43744;SDS011;29359;53.048;8.732;2023-12-20T10:57:10;5.35;;;0.60;;
43744;SDS011;29359;53.048;8.732;2023-12-20T10:59:13;2.95;;;0.32;;
43744;SDS011;29359;53.048;8.732;2023-12-20T11:01:20;4.38;;;0.82;;
43744;SDS011;29359;53.048;8.732;2023-12-20T11:03:23;6.15;;;1.02;;
43744;SDS011;29359;53.048;8.732;2023-12-20T11:05:49;4.95;;;0.88;;
43744;SDS011;29359;53.048;8.732;2023-12-20T11:08:10;7.88;;;1.20;;
43744;SDS011;29359;53.048;8.732;2023-12-20T11:10:18;6.20;;;0.98;;
43744;SDS011;29359;53.048;8.732;2023-12-20T11:12:30;3.08;;;0.82;;
43744;SDS011;29359;53.048;8.732;2023-12-20T11:16:48;6.05;;;1.08;;
43744;SDS011;29359;53.048;8.732;2023-12-20T11:18:55;6.35;;;0.90;;
43744;SDS011;29359;53.048;8.732;2023-12-20T11:21:01;4.63;;;0.93;;
43744;SDS011;29359;53.048;8.732;2023-12-20T11:25:09;3.83;;;1.08;;
43744;SDS011;29359;53.048;8.732;2023-12-20T11:27:13;8.02;;;1.10;;
43744;SDS011;29359;53.048;8.732;2023-12-20T11:29:31;6.25;;;0.90;;
43744;SDS011;29359;53.048;8.732;2023-12-20T11:31:40;12.55;;;1.92;;
43744;SDS011;29359;53.048;8.732;2023-12-20T11:33:42;4.22;;;1.00;;
43744;SDS011;29359;53.048;8.732;2023-12-20T11:35:46;5.45;;;1.05;;
43744;SDS011;29359;53.048;8.732;2023-12-20T11:37:47;7.05;;;1.88;;
43744;SDS011;29359;53.048;8.732;2023-12-20T11:39:54;4.15;;;0.88;;
43744;SDS011;29359;53.048;8.732;2023-12-20T11:41:57;8.52;;;1.23;;
43744;SDS011;29359;53.048;8.732;2023-12-20T11:44:05;10.38;;;1.23;;
43744;SDS011;29359;53.048;8.732;2023-12-20T11:46:09;4.63;;;0.93;;
43744;SDS011;29359;53.048;8.732;2023-12-20T11:48:11;6.57;;;1.23;;
43744;SDS011;29359;53.048;8.732;2023-12-20T11:50:15;8.80;;;1.10;;
43744;SDS011;29359;53.048;8.732;2023-12-20T11:52:17;7.13;;;1.17;;
43744;SDS011;29359;53.048;8.732;2023-12-20T11:54:19;9.60;;;1.23;;
43744;SDS011;29359;53.048;8.732;2023-12-20T11:56:21;8.05;;;1.30;;
43744;SDS011;29359;53.048;8.732;2023-12-20T11:58:23;10.48;;;1.10;;
43744;SDS011;29359;53.048;8.732;2023-12-20T12:00:25;12.07;;;1.42;;
43744;SDS011;29359;53.048;8.732;2023-12-20T12:02:26;10.23;;;1.65;;
43744;SDS011;29359;53.048;8.732;2023-12-20T12:04:28;7.93;;;1.20;;
43744;SDS011;29359;53.048;8.732;2023-12-20T12:06:30;8.07;;;0.93;;
43744;SDS011;29359;53.048;8.732;2023-12-20T12:08:32;9.30;;;1.00;;
43744;SDS011;29359;53.048;8.732;2023-12-20T12:10:35;7.82;;;1.40;;
43744;SDS011;29359;53.048;8.732;2023-12-20T12:12:37;7.47;;;1.13;;
43744;SDS011;29359;53.048;8.732;2023-12-20T12:14:39;7.38;;;1.45;;
43744;SDS011;29359;53.048;8.732;2023-12-20T12:16:42;6.43;;;1.30;;